createdAt,value
2022-08-07T00:02:39.803Z,77.30
2022-08-07T00:05:06.144Z,77.41
2022-08-07T00:07:40.486Z,77.12
2022-08-07T00:10:27.249Z,77.92
2022-08-07T00:13:02.271Z,78.39
2022-08-07T00:15:46.702Z,78.57
2022-08-07T00:18:24.316Z,78.36
2022-08-07T00:20:56.825Z,78.75
2022-08-07T00:23:28.280Z,78.40
2022-08-07T00:26:02.801Z,78.91
2022-08-07T00:28:45.917Z,79.17
2022-08-07T00:31:37.493Z,78.71
2022-08-07T00:34:08.547Z,78.60
2022-08-07T00:36:43.217Z,79.18
2022-08-07T00:39:17.115Z,80.79
2022-08-07T00:42:01.481Z,79.93
2022-08-07T00:44:35.110Z,79.76
2022-08-07T00:47:16.185Z,79.70
2022-08-07T00:52:53.025Z,81.47
2022-08-07T00:55:25.502Z,82.35
2022-08-07T00:58:12.846Z,82.40
2022-08-07T01:00:54.077Z,81.45
2022-08-07T01:03:55.609Z,81.29
2022-08-07T01:06:14.280Z,81.24
2022-08-07T01:08:53.790Z,80.47
2022-08-07T01:12:09.828Z,81.67
2022-08-07T01:14:16.604Z,81.21
2022-08-07T01:16:47.970Z,80.82
2022-08-07T01:19:19.818Z,81.15
2022-08-07T01:21:55.345Z,81.17
2022-08-07T01:24:26.157Z,81.54
2022-08-07T01:26:56.723Z,81.20
2022-08-07T01:29:33.701Z,81.63
2022-08-07T01:32:12.513Z,81.47
2022-08-07T01:34:47.204Z,82.19
2022-08-07T01:37:18.994Z,82.00
2022-08-07T01:39:50.419Z,81.94
2022-08-07T01:42:40.088Z,83.15
2022-08-07T01:45:17.798Z,82.78
2022-08-07T01:48:18.534Z,82.94
2022-08-07T01:50:40.319Z,82.66
2022-08-07T01:53:21.632Z,83.27
2022-08-07T01:56:12.611Z,83.19
2022-08-07T01:58:50.201Z,83.09
2022-08-07T02:02:00.190Z,83.36
2022-08-07T02:04:23.002Z,83.24
2022-08-07T02:06:59.855Z,84.45
2022-08-07T02:09:53.226Z,86.41
2022-08-07T02:12:29.240Z,86.34
2022-08-07T02:15:06.729Z,85.72
2022-08-07T02:17:39.414Z,86.68
2022-08-07T02:20:17.477Z,85.21
2022-08-07T02:22:55.393Z,85.95
2022-08-07T02:26:10.315Z,86.42
2022-08-07T02:28:24.388Z,86.85
2022-08-07T02:30:55.692Z,86.54
2022-08-07T02:33:41.906Z,85.92
2022-08-07T02:36:28.869Z,87.00
2022-08-07T02:39:15.934Z,86.13
2022-08-07T02:41:54.425Z,85.39
2022-08-07T02:44:34.432Z,84.45
2022-08-07T02:47:06.806Z,86.71
2022-08-07T02:49:57.466Z,85.60
2022-08-07T02:52:32.553Z,83.02
2022-08-07T02:55:27.894Z,83.32
2022-08-07T02:58:05.633Z,82.38
2022-08-07T03:00:37.555Z,82.22
2022-08-07T03:03:13.414Z,80.24
2022-08-07T03:05:43.982Z,79.38
2022-08-07T03:08:15.713Z,79.20
2022-08-07T03:10:47.457Z,77.95
2022-08-07T03:13:20.179Z,76.71
2022-08-07T03:15:56.697Z,77.74
2022-08-07T03:18:34.715Z,78.01
2022-08-07T03:21:11.276Z,78.03
2022-08-07T03:24:19.060Z,77.17
2022-08-07T03:26:35.324Z,76.57
2022-08-07T03:29:15.677Z,76.88
2022-08-07T03:31:49.833Z,77.28
2022-08-07T03:34:22.294Z,77.21
2022-08-07T03:36:54.691Z,77.75
2022-08-07T03:39:59.673Z,79.13
2022-08-07T03:42:17.913Z,78.65
2022-08-07T03:44:53.529Z,79.24
2022-08-07T03:47:23.945Z,79.36
2022-08-07T03:49:53.732Z,79.07
2022-08-07T03:54:33.014Z,80.99
2022-08-07T03:57:03.303Z,80.88
2022-08-07T03:59:33.888Z,80.43
2022-08-07T04:02:04.242Z,79.01
2022-08-07T04:04:33.897Z,78.27
2022-08-07T04:07:16.610Z,76.55
2022-08-07T04:09:50.695Z,76.59
2022-08-07T04:12:27.091Z,75.70
2022-08-07T04:15:00.744Z,75.90
2022-08-07T04:18:30.898Z,75.04
2022-08-07T04:20:20.596Z,74.40
2022-08-07T04:22:53.331Z,74.39
2022-08-07T04:25:35.945Z,73.77
2022-08-07T04:28:13.245Z,73.47
2022-08-07T04:30:56.638Z,73.60
2022-08-07T04:33:28.152Z,73.41
2022-08-07T04:35:58.419Z,73.15
2022-08-07T04:38:29.236Z,72.80
2022-08-07T04:41:00.092Z,72.77
2022-08-07T04:44:10.325Z,72.76
2022-08-07T04:46:34.445Z,72.25
2022-08-07T04:49:17.900Z,72.08
2022-08-07T04:52:05.237Z,71.58
2022-08-07T04:54:41.122Z,71.38
2022-08-07T04:58:12.099Z,70.70
2022-08-07T05:00:31.577Z,69.33
2022-08-07T05:03:17.265Z,68.79
2022-08-07T05:06:19.321Z,68.70
2022-08-07T05:09:01.935Z,67.99
2022-08-07T05:11:58.192Z,67.59
2022-08-07T05:14:55.861Z,67.09
2022-08-07T05:17:51.899Z,66.95
2022-08-07T05:20:16.629Z,66.73
2022-08-07T05:22:49.383Z,66.54
2022-08-07T05:25:35.596Z,65.34
2022-08-07T05:28:20.061Z,64.84
2022-08-07T05:30:53.779Z,64.64
2022-08-07T05:33:25.937Z,63.53
2022-08-07T05:35:57.706Z,63.36
2022-08-07T05:38:59.955Z,63.42
2022-08-07T05:41:18.526Z,63.05
2022-08-07T05:44:12.698Z,62.17
2022-08-07T05:46:45.971Z,62.07
2022-08-07T05:49:22.654Z,61.63
2022-08-07T05:51:52.290Z,61.89
2022-08-07T05:54:30.744Z,61.92
2022-08-07T05:57:03.578Z,61.71
2022-08-07T05:59:57.576Z,61.76
2022-08-07T06:02:32.916Z,61.81
2022-08-07T06:05:07.450Z,61.12
2022-08-07T06:08:13.535Z,60.19
2022-08-07T06:10:31.173Z,60.52
2022-08-07T06:13:02.448Z,60.33
2022-08-07T06:15:38.976Z,61.18
2022-08-07T06:18:14.801Z,60.17
2022-08-07T06:20:50.496Z,60.72
2022-08-07T06:24:36.799Z,59.79
2022-08-07T06:26:27.473Z,59.92
2022-08-07T06:29:01.453Z,59.80
2022-08-07T06:31:46.611Z,59.23
2022-08-07T06:34:21.476Z,59.91
2022-08-07T06:36:52.108Z,58.76
2022-08-07T06:40:17.985Z,57.90
2022-08-07T06:42:17.761Z,57.84
2022-08-07T06:44:50.968Z,58.08
2022-08-07T06:47:22.024Z,58.89
2022-08-07T06:49:58.631Z,58.30
2022-08-07T06:55:27.735Z,57.10
2022-08-07T06:56:49.375Z,56.89
2022-08-07T07:00:14.718Z,56.40
2022-08-07T07:02:48.510Z,56.50
2022-08-07T07:05:13.043Z,58.18
2022-08-07T07:07:59.947Z,57.23
2022-08-07T07:10:37.148Z,57.28
2022-08-07T07:13:14.628Z,58.05
2022-08-07T07:15:51.900Z,57.95
2022-08-07T07:18:47.967Z,57.47
2022-08-07T07:21:27.002Z,56.72
2022-08-07T07:24:11.242Z,56.26
2022-08-07T07:26:51.963Z,55.05
2022-08-07T07:29:56.834Z,53.75
2022-08-07T07:32:17.808Z,54.22
2022-08-07T07:34:51.056Z,53.34
2022-08-07T07:37:45.133Z,53.47
2022-08-07T07:40:18.638Z,53.24
2022-08-07T07:42:54.325Z,51.47
2022-08-07T07:46:38.266Z,53.23
2022-08-07T07:48:35.026Z,52.20
2022-08-07T07:51:07.738Z,52.80
2022-08-07T07:53:51.899Z,52.46
2022-08-07T07:56:30.071Z,50.57
2022-08-07T07:59:05.932Z,51.23
2022-08-07T08:02:02.576Z,50.76
2022-08-07T08:04:31.272Z,51.35
2022-08-07T08:07:07.605Z,50.90
2022-08-07T08:09:52.151Z,50.82
2022-08-07T08:12:52.077Z,50.05
2022-08-07T08:15:23.227Z,51.24
2022-08-07T08:18:36.943Z,49.67
2022-08-07T08:20:43.669Z,49.32
2022-08-07T08:23:37.273Z,47.95
2022-08-07T08:26:22.954Z,48.69
2022-08-07T08:28:57.074Z,48.10
2022-08-07T08:31:58.666Z,47.86
2022-08-07T08:34:29.195Z,47.43
2022-08-07T08:37:00.121Z,45.83
2022-08-07T08:39:38.948Z,44.69
2022-08-07T08:42:29.078Z,45.60
2022-08-07T08:45:13.098Z,46.38
2022-08-07T08:47:55.549Z,46.34
2022-08-07T08:50:39.366Z,46.77
2022-08-07T08:53:20.635Z,47.25
2022-08-07T08:55:58.978Z,46.34
2022-08-07T08:58:41.910Z,45.29
2022-08-07T09:01:20.420Z,45.27
2022-08-07T09:04:01.602Z,45.69
2022-08-07T09:06:47.790Z,45.29
2022-08-07T09:09:57.436Z,45.15
2022-08-07T09:12:53.243Z,44.25
2022-08-07T09:16:23.680Z,43.27
2022-08-07T09:19:51.609Z,43.74
2022-08-07T09:24:32.713Z,43.83
2022-08-07T09:25:28.032Z,45.32
2022-08-07T09:30:00.559Z,45.42
2022-08-07T09:31:05.873Z,42.08
2022-08-07T09:34:01.040Z,42.15
2022-08-07T09:36:37.059Z,44.39
2022-08-07T09:39:54.729Z,44.45
2022-08-07T09:42:36.454Z,44.96
2022-08-07T09:47:27.512Z,45.78
2022-08-07T09:48:43.970Z,44.79
2022-08-07T09:54:02.390Z,44.12
2022-08-07T09:57:46.869Z,43.40
2022-08-07T10:00:18.791Z,41.60
2022-08-07T10:04:05.432Z,40.43
2022-08-07T10:06:40.572Z,40.53
2022-08-07T10:10:00.179Z,40.40
2022-08-07T10:13:03.672Z,41.70
2022-08-07T10:15:51.782Z,39.20
2022-08-07T10:18:53.345Z,39.90
2022-08-07T10:22:02.778Z,39.97
2022-08-07T10:25:05.596Z,39.87
2022-08-07T10:28:02.478Z,37.17
2022-08-07T10:30:45.615Z,38.01
2022-08-07T10:34:14.242Z,39.32
2022-08-07T10:36:50.192Z,39.59
2022-08-07T10:39:41.688Z,40.39
2022-08-07T10:42:37.790Z,40.40
2022-08-07T10:45:44.798Z,40.09
2022-08-07T10:48:34.940Z,40.10
2022-08-07T10:51:16.265Z,40.46
2022-08-07T10:54:15.101Z,40.47
2022-08-07T10:57:01.625Z,41.81
2022-08-07T10:59:55.039Z,40.56
2022-08-07T11:02:37.917Z,42.01
2022-08-07T11:05:35.931Z,41.90
2022-08-07T11:08:31.519Z,42.74
2022-08-07T11:11:10.888Z,42.75
2022-08-07T11:14:56.582Z,43.42
2022-08-07T11:16:51.019Z,43.95
2022-08-07T11:19:31.937Z,44.35
2022-08-07T11:22:27.395Z,44.70
2022-08-07T11:25:13.275Z,45.81
2022-08-07T11:28:01.326Z,45.78
2022-08-07T11:30:44.231Z,47.13
2022-08-07T11:33:59.580Z,47.94
2022-08-07T11:36:39.511Z,48.14
2022-08-07T11:39:24.698Z,48.32
2022-08-07T11:42:08.256Z,48.57
2022-08-07T11:44:59.129Z,48.44
2022-08-07T11:47:56.692Z,48.58
2022-08-07T11:50:44.538Z,49.73
2022-08-07T11:54:01.201Z,49.53
2022-08-07T11:56:48.623Z,49.38
2022-08-07T12:00:11.551Z,48.76
2022-08-07T12:03:41.390Z,48.93
2022-08-07T12:06:44.901Z,48.65
2022-08-07T12:09:33.579Z,48.53
2022-08-07T12:12:11.660Z,45.93
2022-08-07T12:14:56.126Z,45.51
2022-08-07T12:17:58.962Z,44.77
2022-08-07T12:20:36.399Z,45.00
2022-08-07T12:24:05.517Z,45.57
2022-08-07T12:26:35.381Z,45.77
2022-08-07T12:29:37.215Z,45.78
2022-08-07T12:32:19.284Z,46.46
2022-08-07T12:34:55.943Z,46.71
2022-08-07T12:38:09.661Z,47.23
2022-08-07T12:40:46.538Z,47.50
2022-08-07T12:44:04.583Z,47.67
2022-08-07T12:46:26.192Z,48.13
2022-08-07T12:49:25.762Z,48.06
2022-08-07T12:54:02.621Z,48.54
2022-08-07T12:56:55.288Z,48.60
2022-08-07T12:59:33.313Z,48.40
2022-08-07T13:03:01.273Z,48.99
2022-08-07T13:06:02.613Z,49.17
2022-08-07T13:08:56.851Z,49.40
2022-08-07T13:12:02.672Z,49.24
2022-08-07T13:15:04.764Z,49.37
2022-08-07T13:17:44.143Z,50.24
2022-08-07T13:20:27.769Z,50.35
2022-08-07T13:23:09.977Z,50.99
2022-08-07T13:26:10.521Z,51.88
2022-08-07T13:28:55.286Z,54.19
2022-08-07T13:31:46.109Z,56.46
2022-08-07T13:34:39.061Z,58.03
2022-08-07T13:37:25.023Z,59.65
2022-08-07T13:40:35.176Z,60.16
2022-08-07T13:43:11.842Z,60.77
2022-08-07T13:46:10.833Z,61.29
2022-08-07T13:48:39.661Z,60.59
2022-08-07T13:51:28.190Z,59.54
2022-08-07T13:54:03.792Z,58.94
2022-08-07T13:56:41.267Z,59.08
2022-08-07T13:59:31.589Z,58.42
2022-08-07T14:02:10.383Z,58.00
2022-08-07T14:04:54.336Z,57.79
2022-08-07T14:07:28.459Z,57.38
2022-08-07T14:10:20.404Z,56.87
2022-08-07T14:13:00.554Z,56.95
2022-08-07T14:15:36.551Z,56.64
2022-08-07T14:18:23.895Z,56.91
2022-08-07T14:21:11.668Z,57.09
2022-08-07T14:24:00.885Z,57.06
2022-08-07T14:26:50.724Z,56.83
2022-08-07T14:30:04.985Z,56.55
2022-08-07T14:32:19.267Z,55.91
2022-08-07T14:34:52.565Z,55.71
2022-08-07T14:37:23.717Z,55.57
2022-08-07T14:40:25.774Z,54.52
2022-08-07T14:43:54.894Z,54.58
2022-08-07T14:48:48.521Z,53.56
2022-08-07T14:51:24.177Z,53.38
2022-08-07T14:54:33.107Z,53.72
2022-08-07T14:57:08.566Z,53.64
2022-08-07T15:00:03.337Z,53.37
2022-08-07T15:02:34.524Z,52.96
2022-08-07T15:08:00.294Z,53.08
2022-08-07T15:10:31.433Z,53.24
2022-08-07T15:16:11.467Z,53.87
2022-08-07T15:18:48.055Z,53.94
2022-08-07T15:21:59.324Z,52.69
2022-08-07T15:27:15.775Z,52.75
2022-08-07T15:30:04.835Z,52.24
2022-08-07T15:33:01.289Z,51.94
2022-08-07T15:35:40.690Z,52.48
2022-08-07T15:38:51.383Z,52.48
2022-08-07T15:42:43.379Z,52.90
2022-08-07T15:44:23.727Z,53.96
2022-08-07T15:47:03.295Z,53.71
2022-08-07T15:50:04.234Z,53.41
2022-08-07T15:53:56.854Z,53.76
2022-08-07T15:56:36.954Z,54.06
2022-08-07T15:59:17.431Z,55.89
2022-08-07T16:02:01.847Z,62.35
2022-08-07T16:04:36.191Z,64.59
2022-08-07T16:08:30.355Z,68.22
2022-08-07T16:10:15.508Z,69.69
2022-08-07T16:13:04.897Z,70.65
2022-08-07T16:16:48.725Z,72.85
2022-08-07T16:19:20.858Z,73.32
2022-08-07T16:22:55.827Z,75.41
2022-08-07T16:25:56.784Z,77.67
2022-08-07T16:30:05.974Z,78.19
2022-08-07T16:32:00.703Z,79.33
2022-08-07T16:34:48.492Z,80.46
2022-08-07T16:38:44.461Z,79.99
2022-08-07T16:41:41.201Z,80.83
2022-08-07T16:45:14.750Z,81.42
2022-08-07T16:48:28.609Z,81.32
2022-08-07T16:51:57.730Z,80.10
2022-08-07T16:54:32.953Z,79.30
2022-08-07T16:58:02.644Z,79.68
2022-08-07T17:00:43.571Z,80.86
2022-08-07T17:03:58.275Z,80.86
2022-08-07T17:06:34.291Z,82.44
2022-08-07T17:10:06.043Z,82.93
2022-08-07T17:12:34.330Z,83.68
2022-08-07T17:15:21.362Z,84.22
2022-08-07T17:18:12.701Z,82.22
2022-08-07T17:20:46.586Z,82.85
2022-08-07T17:23:38.884Z,82.83
2022-08-07T17:26:24.249Z,83.52
2022-08-07T17:29:18.399Z,83.87
2022-08-07T17:32:31.211Z,84.16
2022-08-07T17:35:50.916Z,83.92
2022-08-07T17:38:33.520Z,83.66
2022-08-07T17:42:00.574Z,81.77
2022-08-07T17:44:33.270Z,81.47
2022-08-07T17:47:16.836Z,82.37
2022-08-07T17:49:55.860Z,82.32
2022-08-07T17:52:39.901Z,82.37
2022-08-07T17:55:14.114Z,84.31
2022-08-07T17:57:58.752Z,85.34
2022-08-07T18:00:49.071Z,85.70
2022-08-07T18:04:04.658Z,84.60
2022-08-07T18:06:38.168Z,85.03
2022-08-07T18:09:09.544Z,84.63
2022-08-07T18:12:17.844Z,86.72
2022-08-07T18:14:52.894Z,88.58
2022-08-07T18:18:36.519Z,88.78
2022-08-07T18:21:07.145Z,89.97
2022-08-07T18:23:43.689Z,88.69
2022-08-07T18:26:26.963Z,90.89
2022-08-07T18:30:04.692Z,91.47
2022-08-07T18:32:21.983Z,90.86
2022-08-07T18:35:12.872Z,90.44
2022-08-07T18:38:55.182Z,90.13
2022-08-07T18:41:17.040Z,89.78
2022-08-07T18:44:03.883Z,88.47
2022-08-07T18:46:58.223Z,88.70
2022-08-07T18:50:31.465Z,89.29
2022-08-07T18:54:27.595Z,89.90
2022-08-07T18:57:30.665Z,87.99
2022-08-07T19:00:32.425Z,87.12
2022-08-07T19:03:12.211Z,85.67
2022-08-07T19:06:04.103Z,83.67
2022-08-07T19:08:48.312Z,83.73
2022-08-07T19:11:35.022Z,82.42
2022-08-07T19:14:17.262Z,82.87
2022-08-07T19:17:07.645Z,80.67
2022-08-07T19:19:55.115Z,80.76
2022-08-07T19:22:34.226Z,80.39
2022-08-07T19:26:23.356Z,79.00
2022-08-07T19:28:57.147Z,78.19
2022-08-07T19:31:37.428Z,78.65
2022-08-07T19:34:02.856Z,77.22
2022-08-07T19:36:42.561Z,77.28
2022-08-07T19:39:56.126Z,77.27
2022-08-07T19:42:24.544Z,76.20
2022-08-07T19:44:56.953Z,75.69
2022-08-07T19:47:36.681Z,75.77
2022-08-07T19:50:41.135Z,76.23
2022-08-07T19:53:01.011Z,74.93
2022-08-07T19:55:56.353Z,74.04
2022-08-07T19:58:22.497Z,73.39
2022-08-07T20:01:01.686Z,71.74
2022-08-07T20:03:35.209Z,71.39
2022-08-07T20:06:15.312Z,71.86
2022-08-07T20:09:03.070Z,72.11
2022-08-07T20:12:22.849Z,73.16
2022-08-07T20:14:32.114Z,73.93
2022-08-07T20:17:06.082Z,74.06
2022-08-07T20:19:48.034Z,74.67
2022-08-07T20:22:34.108Z,75.82
2022-08-07T20:25:19.297Z,78.22
2022-08-07T20:27:58.562Z,77.93
2022-08-07T20:30:35.094Z,79.69
2022-08-07T20:33:24.494Z,80.82
2022-08-07T20:36:03.059Z,81.77
2022-08-07T20:38:35.049Z,82.73
2022-08-07T20:41:08.370Z,83.21
2022-08-07T20:43:47.674Z,83.55
2022-08-07T20:46:26.656Z,83.19
2022-08-07T20:49:57.994Z,83.84
2022-08-07T20:51:51.463Z,83.31
2022-08-07T20:54:29.998Z,84.25
2022-08-07T20:57:05.322Z,84.27
2022-08-07T21:00:06.431Z,84.21
2022-08-07T21:02:53.891Z,84.62
2022-08-07T21:05:50.550Z,85.49
2022-08-07T21:08:38.246Z,84.65
2022-08-07T21:11:14.806Z,84.72
2022-08-07T21:14:29.365Z,84.38
2022-08-07T21:16:56.850Z,84.99
2022-08-07T21:19:51.246Z,85.85
2022-08-07T21:22:29.574Z,86.58
2022-08-07T21:25:13.338Z,87.93
2022-08-07T21:28:09.492Z,87.91
2022-08-07T21:30:57.875Z,88.02
2022-08-07T21:33:41.894Z,88.10
2022-08-07T21:36:31.784Z,88.80
2022-08-07T21:39:47.714Z,88.17
2022-08-07T21:42:48.139Z,88.63
2022-08-07T21:46:08.016Z,88.90
2022-08-07T21:48:28.526Z,88.74
2022-08-07T21:53:54.755Z,89.17
2022-08-07T21:56:48.256Z,89.17
2022-08-07T22:00:05.225Z,89.80
2022-08-07T22:02:35.729Z,89.23
2022-08-07T22:05:08.847Z,89.23
2022-08-07T22:07:58.484Z,89.45
2022-08-07T22:10:35.567Z,89.69
2022-08-07T22:13:09.011Z,90.09
2022-08-07T22:16:44.090Z,89.91
2022-08-07T22:18:46.436Z,90.22
2022-08-07T22:21:21.179Z,89.60
2022-08-07T22:23:59.793Z,89.02
2022-08-07T22:26:44.395Z,88.86
2022-08-07T22:29:38.132Z,89.27
2022-08-07T22:32:24.492Z,89.12
2022-08-07T22:34:57.438Z,88.91
2022-08-07T22:38:04.150Z,90.05
2022-08-07T22:40:44.219Z,89.73
2022-08-07T22:43:18.714Z,89.42
2022-08-07T22:46:46.939Z,90.54
2022-08-07T22:49:33.688Z,91.18
2022-08-07T22:52:39.919Z,90.91
2022-08-07T22:55:40.550Z,90.34
2022-08-07T22:58:56.055Z,90.07
2022-08-07T23:02:17.030Z,89.96
2022-08-07T23:06:08.954Z,90.72
2022-08-07T23:08:32.684Z,90.33
2022-08-07T23:11:24.617Z,90.36
2022-08-07T23:14:24.651Z,89.98
2022-08-07T23:17:29.666Z,89.68
2022-08-07T23:20:53.162Z,88.84
2022-08-07T23:24:17.127Z,86.37
2022-08-07T23:27:08.663Z,84.35
2022-08-07T23:30:37.309Z,84.02
2022-08-07T23:34:34.865Z,84.85
2022-08-07T23:36:37.345Z,85.37
2022-08-07T23:39:14.440Z,87.16
2022-08-07T23:42:04.211Z,87.85
2022-08-07T23:45:49.869Z,89.34
2022-08-07T23:48:35.520Z,90.23
2022-08-07T23:52:55.982Z,90.93
2022-08-07T23:54:11.719Z,91.45
2022-08-07T23:57:03.011Z,92.07
